Time;durP1;ratioP1;P1;durP2;ratioP2;P2;SDS_P1;SDS_P2;PMS_P1;PMS_P2;Temp;Humidity;BMP_temperature;BMP_pressure;BME280_temperature;BME280_humidity;BME280_pressure;Samples;Min_cycle;Max_cycle;Signal;HPM_P1;HPM_P2
2023/01/30 00:01:25;;;;;;;17.40;9.50;;;;;;;6.08;48.27;100032.56;108068;1260;61338;-62
2023/01/30 00:03:54;;;;;;;19.50;10.00;;;;;;;6.18;48.58;100028.20;108098;1254;73745;-61
2023/01/30 00:06:23;;;;;;;18.40;10.00;;;;;;;6.23;47.77;100031.76;108149;1254;71369;-62
2023/01/30 00:08:51;;;;;;;22.10;10.80;;;;;;;6.35;48.16;100036.71;108139;1254;72742;-63
2023/01/30 00:11:20;;;;;;;19.40;10.50;;;;;;;6.49;48.23;100034.68;108131;1254;62517;-64
2023/01/30 00:13:49;;;;;;;20.50;10.90;;;;;;;6.19;48.01;100032.70;108119;1254;60497;-65
2023/01/30 00:16:17;;;;;;;21.30;10.40;;;;;;;6.14;48.78;100029.67;108092;1254;72472;-61
2023/01/30 00:18:46;;;;;;;17.40;9.90;;;;;;;6.29;48.42;100022.55;108097;1254;71233;-62
2023/01/30 00:21:14;;;;;;;21.20;10.40;;;;;;;6.31;48.25;100020.25;108120;1254;73405;-63
2023/01/30 00:23:43;;;;;;;20.20;10.80;;;;;;;6.22;48.73;100017.30;108079;1254;62043;-64
2023/01/30 00:26:11;;;;;;;19.80;9.70;;;;;;;6.27;47.99;100013.88;108149;1254;61218;-63
2023/01/30 00:28:40;;;;;;;21.90;11.70;;;;;;;6.37;48.61;100010.34;108147;1254;74036;-62
2023/01/30 00:31:12;;;;;;;25.30;11.40;;;;;;;6.41;48.15;100006.77;108112;1254;70374;-63
2023/01/30 00:33:40;;;;;;;20.20;10.40;;;;;;;6.55;48.11;100007.51;108122;1254;73895;-62
2023/01/30 00:36:09;;;;;;;18.20;9.80;;;;;;;6.71;48.17;100007.16;108160;1254;61276;-64
2023/01/30 00:38:37;;;;;;;16.10;9.40;;;;;;;6.45;48.05;100004.41;108186;1254;60393;-63
2023/01/30 00:41:09;;;;;;;18.80;9.50;;;;;;;6.21;48.84;100001.79;108279;1254;73778;-62
2023/01/30 00:49:18;;;;;;;14.10;8.10;;;;;;;6.54;47.34;99999.70;108157;1254;62124;-63
2023/01/30 00:51:46;;;;;;;18.60;9.60;;;;;;;6.56;47.94;100000.52;108121;1254;61174;-61
2023/01/30 00:54:14;;;;;;;18.20;9.00;;;;;;;6.51;47.12;99991.89;108113;1257;74113;-63
2023/01/30 00:56:43;;;;;;;18.60;8.80;;;;;;;6.38;47.53;99983.64;108183;1254;71525;-61
2023/01/30 00:59:11;;;;;;;16.90;8.80;;;;;;;6.65;46.90;99977.63;108156;1253;73698;-61
2023/01/30 01:01:39;;;;;;;15.60;9.20;;;;;;;6.72;46.04;99968.75;108091;1254;62088;-62
2023/01/30 01:04:09;;;;;;;17.50;10.00;;;;;;;6.64;46.73;99964.56;108075;1254;61124;-63
2023/01/30 01:06:42;;;;;;;16.80;8.60;;;;;;;6.75;46.50;99960.11;108147;1254;73337;-64
2023/01/30 01:09:10;;;;;;;17.20;10.20;;;;;;;7.04;46.06;99961.86;108086;1254;69679;-63
2023/01/30 01:11:40;;;;;;;22.80;10.80;;;;;;;7.17;46.32;99960.13;108137;1254;71738;-63
2023/01/30 01:14:08;;;;;;;17.50;9.70;;;;;;;7.38;45.38;99950.33;108080;1254;62391;-62
2023/01/30 01:16:36;;;;;;;22.20;11.20;;;;;;;7.59;45.44;99952.17;108122;1254;61327;-62
2023/01/30 01:19:04;;;;;;;22.10;10.40;;;;;;;7.35;45.65;99953.38;108060;1254;73156;-64
2023/01/30 01:21:34;;;;;;;21.40;10.60;;;;;;;7.30;46.02;99948.98;108141;1254;71386;-62
2023/01/30 01:24:05;;;;;;;17.70;10.30;;;;;;;7.07;46.97;99950.94;108065;1254;72953;-62
2023/01/30 01:26:34;;;;;;;19.90;10.50;;;;;;;7.43;46.22;99944.77;108147;1254;60710;-61
2023/01/30 01:29:02;;;;;;;21.50;10.60;;;;;;;7.54;45.75;99943.41;108237;1253;61479;-61
2023/01/30 01:31:31;;;;;;;20.00;10.40;;;;;;;7.37;46.29;99939.68;108154;1253;73966;-63
2023/01/30 01:34:00;;;;;;;21.00;10.40;;;;;;;6.85;45.75;99942.06;108118;1253;71274;-63
2023/01/30 01:36:28;;;;;;;20.60;10.60;;;;;;;6.77;46.59;99940.02;108074;1253;73829;-62
2023/01/30 01:39:16;;;;;;;18.50;10.40;;;;;;;6.99;46.41;99939.83;108136;1253;60722;-63
2023/01/30 01:41:44;;;;;;;24.20;10.40;;;;;;;7.14;45.94;99938.04;108170;1254;59985;-60
2023/01/30 04:15:01;;;;;;;20.70;10.70;;;;;;;2.41;69.22;99812.63;105611;1282;613625;-64
2023/01/30 04:17:44;;;;;;;17.90;9.70;;;;;;;4.11;61.34;99804.45;107154;1266;134699;-64
2023/01/30 04:20:19;;;;;;;21.00;9.90;;;;;;;4.63;59.44;99798.70;107328;1266;61416;-64
2023/01/30 04:22:50;;;;;;;17.30;9.50;;;;;;;4.96;58.05;99798.77;107280;1265;73470;-63
2023/01/30 04:25:20;;;;;;;19.70;10.30;;;;;;;5.21;56.64;99803.68;107424;1265;71367;-63
2023/01/30 04:27:48;;;;;;;18.50;9.70;;;;;;;5.56;55.57;99806.10;107603;1260;73632;-64
2023/01/30 04:30:23;;;;;;;19.80;10.20;;;;;;;5.69;54.76;99805.13;107716;1257;62632;-63
2023/01/30 04:32:56;;;;;;;17.30;9.70;;;;;;;5.85;53.95;99801.98;107917;1257;60050;-64
2023/01/30 04:35:24;;;;;;;16.40;8.60;;;;;;;5.71;53.94;99805.08;107802;1257;73485;-64
2023/01/30 04:37:53;;;;;;;16.40;9.90;;;;;;;5.80;53.62;99803.64;107816;1258;71246;-64
2023/01/30 04:40:26;;;;;;;18.90;9.10;;;;;;;5.56;53.84;99803.31;107788;1257;72901;-65
2023/01/30 04:42:55;;;;;;;19.70;8.60;;;;;;;5.48;54.29;99799.46;107840;1257;62098;-64
2023/01/30 04:45:35;;;;;;;19.70;9.20;;;;;;;5.53;54.22;99794.48;107816;1257;61222;-62
2023/01/30 04:48:04;;;;;;;17.90;9.30;;;;;;;6.11;53.26;99791.09;107811;1257;73761;-64
2023/01/30 04:50:32;;;;;;;16.00;9.10;;;;;;;6.42;52.47;99790.70;108077;1254;70695;-64
2023/01/30 04:53:00;;;;;;;19.10;9.00;;;;;;;6.41;52.14;99787.23;108044;1254;73732;-61
2023/01/30 04:55:28;;;;;;;15.30;8.70;;;;;;;6.23;52.35;99788.73;108009;1254;62120;-64
2023/01/30 04:57:56;;;;;;;16.50;9.40;;;;;;;6.55;51.23;99789.48;107950;1254;59402;-63
2023/01/30 05:00:26;;;;;;;18.40;9.90;;;;;;;6.73;51.45;99783.95;107930;1254;73339;-63
2023/01/30 05:03:00;;;;;;;18.10;9.50;;;;;;;6.89;50.85;99779.52;108005;1254;70394;-63
2023/01/30 05:05:29;;;;;;;16.70;8.40;;;;;;;6.54;50.88;99774.84;108069;1254;73674;-64
2023/01/30 05:07:57;;;;;;;18.40;9.30;;;;;;;6.63;51.32;99771.83;108026;1254;61290;-65
2023/01/30 05:10:25;;;;;;;18.40;10.80;;;;;;;6.98;50.77;99765.45;107996;1254;61593;-62
2023/01/30 05:12:54;;;;;;;19.40;9.90;;;;;;;6.74;50.91;99764.38;108104;1258;72065;-63
2023/01/30 05:15:22;;;;;;;18.10;10.20;;;;;;;6.83;50.98;99762.73;108010;1255;70583;-63
2023/01/30 05:17:51;;;;;;;22.50;12.20;;;;;;;6.77;51.17;99759.44;107820;1255;73682;-63
2023/01/30 05:20:19;;;;;;;23.00;11.90;;;;;;;7.18;50.27;99755.48;108036;1257;61961;-62
2023/01/30 05:22:49;;;;;;;23.40;11.40;;;;;;;7.35;49.97;99746.93;108022;1254;61557;-62
2023/01/30 05:25:18;;;;;;;21.30;11.50;;;;;;;7.53;49.81;99750.07;108015;1254;74203;-62
2023/01/30 05:27:46;;;;;;;19.90;10.80;;;;;;;7.00;50.19;99748.31;107991;1256;69990;-64
2023/01/30 05:30:16;;;;;;;20.60;11.30;;;;;;;7.21;50.86;99748.58;107941;1255;73852;-63
2023/01/30 05:32:44;;;;;;;22.90;11.30;;;;;;;7.03;51.06;99752.59;108022;1257;59911;-66
2023/01/30 05:35:12;;;;;;;28.10;14.30;;;;;;;6.81;50.94;99750.94;107995;1255;60606;-62
2023/01/30 05:37:41;;;;;;;24.40;12.30;;;;;;;7.20;51.02;99741.80;107970;1259;74271;-62
2023/01/30 05:40:11;;;;;;;26.00;12.80;;;;;;;7.45;49.97;99739.11;107976;1256;69305;-62
2023/01/30 05:42:39;;;;;;;29.80;15.70;;;;;;;7.83;49.22;99730.60;108000;1256;73940;-64
2023/01/30 05:45:09;;;;;;;28.90;15.80;;;;;;;7.50;49.92;99725.88;107901;1256;63096;-61
2023/01/30 05:47:38;;;;;;;27.10;13.70;;;;;;;7.06;50.33;99725.80;107930;1256;60403;-65
2023/01/30 05:50:07;;;;;;;31.60;16.60;;;;;;;6.98;50.82;99722.52;107987;1257;73975;-63
2023/01/30 05:52:35;;;;;;;30.90;16.10;;;;;;;6.95;50.50;99716.52;107934;1256;71306;-64
2023/01/30 05:55:04;;;;;;;32.90;16.30;;;;;;;6.46;51.50;99712.63;107922;1255;73907;-62
2023/01/30 05:57:33;;;;;;;28.60;14.60;;;;;;;6.63;51.85;99715.48;107963;1257;61046;-62
2023/01/30 06:00:01;;;;;;;26.00;13.30;;;;;;;6.74;51.15;99710.64;108006;1256;61149;-64
2023/01/30 06:02:40;;;;;;;29.50;14.80;;;;;;;6.85;51.21;99706.66;107879;1259;74280;-65
2023/01/30 06:05:08;;;;;;;26.70;14.60;;;;;;;7.02;51.04;99705.15;107967;1256;71362;-62
2023/01/30 06:07:37;;;;;;;22.80;12.60;;;;;;;6.79;50.82;99707.20;107997;1259;73713;-63
2023/01/30 06:10:05;;;;;;;27.80;14.50;;;;;;;6.98;51.64;99706.64;107826;1255;62119;-64
2023/01/30 06:12:34;;;;;;;27.80;14.70;;;;;;;7.43;50.30;99706.86;107972;1255;61569;-63
2023/01/30 06:15:02;;;;;;;27.90;15.90;;;;;;;7.60;49.37;99703.54;107966;1257;73270;-64
2023/01/30 06:17:32;;;;;;;29.50;16.20;;;;;;;7.71;49.36;99702.48;107979;1256;70623;-65
2023/01/30 06:20:00;;;;;;;29.90;14.20;;;;;;;7.41;49.25;99698.73;107977;1257;73687;-64
2023/01/30 06:22:29;;;;;;;30.60;15.80;;;;;;;7.43;49.62;99694.48;107938;1255;62154;-65
2023/01/30 06:24:57;;;;;;;28.10;13.20;;;;;;;7.56;49.49;99691.81;107973;1256;60875;-62
2023/01/30 06:27:26;;;;;;;25.30;13.10;;;;;;;7.26;49.49;99692.92;107963;1257;74333;-64
2023/01/30 06:29:56;;;;;;;29.60;15.10;;;;;;;7.79;49.14;99688.07;108115;1255;71033;-64
2023/01/30 06:32:24;;;;;;;31.10;13.40;;;;;;;7.58;48.85;99686.66;108118;1257;72822;-64
2023/01/30 06:34:53;;;;;;;28.60;13.90;;;;;;;7.51;48.92;99686.89;108134;1256;61915;-64
2023/01/30 06:37:22;;;;;;;31.40;14.60;;;;;;;7.69;48.76;99680.20;107896;1255;61526;-64
2023/01/30 06:39:50;;;;;;;33.00;16.00;;;;;;;7.32;49.10;99677.16;107590;1257;74037;-62
2023/01/30 06:42:18;;;;;;;35.00;16.20;;;;;;;7.30;49.42;99679.00;108048;1256;71620;-64
2023/01/30 06:44:46;;;;;;;35.40;17.10;;;;;;;7.20;49.77;99677.52;107895;1257;72662;-61
2023/01/30 06:47:14;;;;;;;30.40;15.80;;;;;;;6.96;49.97;99680.34;108057;1254;61499;-63
2023/01/30 06:49:42;;;;;;;39.20;17.10;;;;;;;7.32;49.83;99680.15;108006;1255;60461;-63
2023/01/30 06:52:10;;;;;;;28.60;14.60;;;;;;;7.19;49.63;99671.29;108052;1257;74228;-64
2023/01/30 06:54:39;;;;;;;26.00;13.20;;;;;;;7.15;49.98;99664.95;108024;1257;71254;-63
2023/01/30 06:57:07;;;;;;;26.90;13.00;;;;;;;7.17;50.07;99663.30;107849;1256;73155;-67
2023/01/30 06:59:35;;;;;;;28.80;15.40;;;;;;;7.13;49.98;99659.26;108034;1256;62093;-64
2023/01/30 07:02:03;;;;;;;25.20;12.00;;;;;;;7.33;49.71;99659.33;108056;1255;59063;-65
2023/01/30 07:04:31;;;;;;;27.30;14.30;;;;;;;7.10;50.31;99659.17;108021;1256;73791;-63
2023/01/30 07:06:59;;;;;;;29.50;16.10;;;;;;;7.21;50.04;99660.73;108084;1256;70534;-62
2023/01/30 07:09:28;;;;;;;28.90;13.60;;;;;;;7.53;49.79;99657.82;108030;1257;73673;-63
2023/01/30 07:11:56;;;;;;;24.50;12.20;;;;;;;7.63;49.19;99655.24;108025;1258;62145;-64
2023/01/30 07:14:24;;;;;;;26.90;12.70;;;;;;;7.83;49.04;99653.17;107999;1257;61329;-64
2023/01/30 07:16:53;;;;;;;28.30;14.50;;;;;;;7.94;49.07;99656.47;108013;1257;74469;-64
2023/01/30 07:19:23;;;;;;;26.60;13.40;;;;;;;7.95;48.60;99656.61;107864;1256;71238;-65
2023/01/30 07:21:51;;;;;;;30.10;15.80;;;;;;;7.97;48.84;99653.77;107964;1257;71382;-66
2023/01/30 07:24:19;;;;;;;26.10;14.30;;;;;;;8.20;48.33;99655.60;107924;1256;60641;-63
2023/01/30 07:26:47;;;;;;;26.70;14.00;;;;;;;7.57;49.14;99655.41;107950;1256;61344;-65
2023/01/30 07:29:16;;;;;;;26.70;13.00;;;;;;;7.61;49.67;99648.49;107999;1256;72996;-61
2023/01/30 07:31:44;;;;;;;22.60;12.70;;;;;;;7.95;49.01;99648.59;108007;1256;71296;-63
2023/01/30 07:34:12;;;;;;;28.30;13.80;;;;;;;8.20;48.49;99643.36;108081;1255;73974;-63
2023/01/30 07:36:40;;;;;;;24.70;13.30;;;;;;;7.78;49.40;99642.69;108018;1257;61441;-63
2023/01/30 07:39:08;;;;;;;29.30;11.50;;;;;;;7.56;49.80;99637.45;108035;1256;61738;-62
2023/01/30 07:41:37;;;;;;;25.60;11.10;;;;;;;7.47;50.25;99630.95;108037;1255;73961;-62
2023/01/30 07:44:11;;;;;;;29.10;14.20;;;;;;;7.62;49.92;99623.64;108025;1257;71547;-63
2023/01/30 07:46:39;;;;;;;32.70;14.50;;;;;;;7.38;50.71;99621.27;108005;1256;73676;-64
2023/01/30 07:49:08;;;;;;;31.40;15.20;;;;;;;7.60;50.57;99620.92;107909;1256;61230;-63
2023/01/30 07:51:36;;;;;;;26.90;12.50;;;;;;;7.81;49.94;99619.86;108075;1256;60002;-64
2023/01/30 07:54:04;;;;;;;25.10;14.10;;;;;;;8.15;49.51;99615.39;107963;1256;74247;-62
2023/01/30 07:56:34;;;;;;;29.70;14.60;;;;;;;8.15;49.49;99608.04;108060;1257;70501;-63
2023/01/30 07:59:04;;;;;;;28.70;15.90;;;;;;;7.94;49.38;99606.30;108017;1257;71896;-61
2023/01/30 08:01:32;;;;;;;32.00;14.00;;;;;;;7.57;50.93;99604.24;108018;1256;61868;-65
2023/01/30 08:04:00;;;;;;;27.70;13.70;;;;;;;7.45;50.78;99597.11;108042;1257;61122;-64
2023/01/30 08:06:29;;;;;;;31.70;15.50;;;;;;;7.74;50.62;99589.70;107941;1256;74067;-65
2023/01/30 08:08:58;;;;;;;32.70;15.30;;;;;;;7.61;50.63;99584.71;107705;1256;71337;-63
2023/01/30 08:11:27;;;;;;;21.60;10.00;;;;;;;7.72;50.49;99583.81;107745;1256;73886;-63
2023/01/30 08:13:56;;;;;;;34.50;17.60;;;;;;;7.82;50.66;99583.14;107905;1256;62797;-65
2023/01/30 08:16:24;;;;;;;34.60;18.20;;;;;;;7.97;50.24;99577.52;107640;1256;61571;-64
2023/01/30 08:18:53;;;;;;;30.10;16.50;;;;;;;8.50;49.34;99577.76;107589;1256;73958;-64
2023/01/30 08:21:21;;;;;;;28.60;14.80;;;;;;;8.35;49.48;99577.96;107698;1256;69745;-65
2023/01/30 08:23:49;;;;;;;29.30;14.90;;;;;;;7.98;50.02;99569.81;107905;1256;73817;-64
2023/01/30 08:26:17;;;;;;;28.30;14.00;;;;;;;8.32;49.78;99567.54;107892;1256;60707;-65
2023/01/30 08:28:46;;;;;;;27.00;14.60;;;;;;;8.52;49.33;99559.15;107982;1256;61249;-62
2023/01/30 08:31:14;;;;;;;24.10;10.90;;;;;;;8.30;49.17;99558.87;108076;1255;73767;-65
2023/01/30 08:33:43;;;;;;;29.60;14.70;;;;;;;8.07;49.66;99551.16;108133;1257;70425;-65
2023/01/30 08:36:11;;;;;;;35.00;14.20;;;;;;;8.46;49.14;99546.74;108151;1257;72680;-63
2023/01/30 08:38:39;;;;;;;30.30;14.90;;;;;;;8.40;49.13;99538.91;108040;1257;60927;-63
2023/01/30 08:41:08;;;;;;;29.90;16.80;;;;;;;8.79;48.31;99536.22;108030;1259;61126;-64
2023/01/30 08:43:36;;;;;;;28.60;15.30;;;;;;;8.57;48.40;99540.37;107966;1257;74862;-62
2023/01/30 08:46:04;;;;;;;31.90;16.00;;;;;;;8.20;49.58;99538.45;107947;1255;69846;-64
2023/01/30 08:48:33;;;;;;;25.70;12.30;;;;;;;7.93;50.38;99537.13;108078;1257;73465;-64
2023/01/30 08:51:15;;;;;;;32.50;15.40;;;;;;;7.88;50.26;99530.51;108021;1256;61202;-64
2023/01/30 08:53:44;;;;;;;22.20;12.50;;;;;;;8.08;49.96;99529.95;108073;1257;60485;-65
2023/01/30 08:56:12;;;;;;;31.10;13.50;;;;;;;8.25;49.52;99526.52;107874;1261;74650;-64
2023/01/30 08:58:42;;;;;;;28.60;16.90;;;;;;;8.34;49.24;99521.84;108092;1257;71590;-65
2023/01/30 09:01:10;;;;;;;27.80;12.90;;;;;;;8.49;49.17;99523.20;108076;1257;73896;-62
2023/01/30 09:03:39;;;;;;;24.60;12.40;;;;;;;8.09;49.66;99519.42;108093;1256;62108;-62
2023/01/30 09:06:07;;;;;;;34.30;14.70;;;;;;;8.38;49.15;99509.26;107981;1260;60768;-64
2023/01/30 09:08:36;;;;;;;26.00;13.40;;;;;;;8.62;48.92;99498.23;107994;1257;74844;-64
2023/01/30 09:11:08;;;;;;;;;;;;;;;8.52;48.90;99499.80;108065;1256;71195;-65
2023/01/30 09:13:42;;;;;;;33.60;14.40;;;;;;;8.43;49.01;99498.23;108013;1256;73299;-66
2023/01/30 09:16:10;;;;;;;31.50;14.00;;;;;;;8.45;49.14;99491.83;108061;1255;61471;-65
2023/01/30 09:18:40;;;;;;;22.40;11.00;;;;;;;8.33;49.10;99488.46;108014;1257;61554;-63
2023/01/30 09:21:09;;;;;;;26.30;14.50;;;;;;;8.53;49.08;99478.27;108045;1257;74489;-65
2023/01/30 09:23:38;;;;;;;24.40;12.90;;;;;;;8.75;48.35;99476.53;108043;1256;71595;-64
2023/01/30 09:26:06;;;;;;;28.50;13.30;;;;;;;9.24;47.48;99472.27;108059;1257;73702;-63
2023/01/30 09:28:34;;;;;;;26.50;13.20;;;;;;;9.09;47.18;99472.52;108032;1255;62424;-66
2023/01/30 09:31:02;;;;;;;24.70;13.90;;;;;;;9.01;47.47;99469.73;108076;1256;60467;-64
2023/01/30 09:33:32;;;;;;;28.70;14.90;;;;;;;9.33;47.08;99464.71;107837;1257;73059;-62
2023/01/30 09:36:01;;;;;;;23.90;13.10;;;;;;;9.15;47.21;99465.30;108001;1256;70705;-63
2023/01/30 09:38:29;;;;;;;25.90;14.40;;;;;;;9.05;47.54;99461.14;107771;1257;73769;-64
2023/01/30 09:40:58;;;;;;;21.20;9.70;;;;;;;9.03;47.43;99455.94;107900;1257;62395;-64
2023/01/30 09:44:04;;;;;;;16.00;7.80;;;;;;;8.85;46.87;99452.68;107987;1257;60804;-64
2023/01/30 13:49:29;;;;;;;28.00;14.60;;;;;;;3.95;75.17;99108.82;105612;1285;613906;-65
2023/01/30 13:52:09;;;;;;;23.30;12.20;;;;;;;5.29;66.85;99093.75;106934;1270;130416;-66
2023/01/30 13:54:58;;;;;;;22.60;11.70;;;;;;;5.35;66.24;99087.98;107804;1256;60465;-65
2023/01/30 13:57:46;;;;;;;28.00;12.00;;;;;;;5.21;65.57;99084.23;107839;1260;73052;-67
2023/01/30 14:00:27;;;;;;;27.10;13.50;;;;;;;5.37;65.13;99076.26;107851;1260;71338;-66
2023/01/30 14:03:04;;;;;;;26.50;14.30;;;;;;;5.51;64.30;99079.43;107834;1260;73834;-67
2023/01/30 14:05:59;;;;;;;38.80;16.90;;;;;;;5.45;64.56;99079.66;107864;1260;61717;-66
2023/01/30 14:08:49;;;;;;;35.40;14.50;;;;;;;5.68;63.54;99076.95;107934;1258;61351;-66
2023/01/30 14:11:38;;;;;;;25.30;13.10;;;;;;;5.68;63.31;99073.83;107910;1258;73201;-67
2023/01/30 14:14:21;;;;;;;27.50;13.80;;;;;;;5.62;63.29;99074.90;107911;1260;70416;-65
2023/01/30 14:17:10;;;;;;;26.40;14.30;;;;;;;5.98;62.35;99067.23;107930;1260;73706;-66
2023/01/30 14:19:42;;;;;;;25.40;13.40;;;;;;;5.83;61.95;99067.41;107858;1260;61093;-66
2023/01/30 14:22:22;;;;;;;26.30;12.20;;;;;;;6.07;61.62;99059.60;107876;1258;61311;-66
2023/01/30 14:25:21;;;;;;;25.60;10.40;;;;;;;6.06;61.25;99054.77;107857;1260;74195;-69
2023/01/30 14:27:51;;;;;;;21.30;11.30;;;;;;;6.66;59.56;99049.77;107839;1258;71512;-66
2023/01/30 14:30:41;;;;;;;26.50;12.50;;;;;;;6.43;59.81;99049.92;107907;1257;73041;-66
2023/01/30 14:33:19;;;;;;;33.30;13.40;;;;;;;6.55;59.78;99045.67;107894;1258;62236;-66
2023/01/30 14:35:57;;;;;;;26.90;13.30;;;;;;;6.53;59.56;99046.59;107884;1257;61384;-66
2023/01/30 14:38:30;;;;;;;33.70;15.60;;;;;;;6.64;58.79;99044.27;107641;1256;74353;-66
2023/01/30 14:40:58;;;;;;;32.50;15.40;;;;;;;6.76;58.39;99040.84;107600;1262;71558;-66
2023/01/30 14:43:35;;;;;;;30.00;14.70;;;;;;;6.89;58.16;99039.45;107638;1261;72402;-67
2023/01/30 14:46:05;;;;;;;27.80;15.40;;;;;;;6.91;58.05;99034.86;107628;1260;62241;-66
2023/01/30 14:48:43;;;;;;;28.20;14.50;;;;;;;7.08;57.53;99033.85;107954;1258;59467;-66
2023/01/30 14:51:19;;;;;;;39.10;16.80;;;;;;;7.48;56.34;99034.45;107931;1256;72926;-66
2023/01/30 14:53:51;;;;;;;26.70;13.30;;;;;;;7.51;56.00;99036.08;107937;1258;71675;-66
2023/01/30 14:56:35;;;;;;;34.90;17.30;;;;;;;7.71;55.30;99030.35;107937;1260;73934;-65
2023/01/30 14:59:16;;;;;;;34.50;16.80;;;;;;;7.69;55.16;99027.45;107892;1257;62301;-66
2023/01/30 15:02:03;;;;;;;30.20;14.90;;;;;;;7.32;55.78;99027.59;107869;1256;61614;-66
2023/01/30 15:04:37;;;;;;;28.10;14.80;;;;;;;7.09;56.46;99024.70;107891;1260;73526;-65
2023/01/30 15:07:15;;;;;;;34.20;14.90;;;;;;;7.22;56.46;99027.14;107875;1260;71145;-65
2023/01/30 15:10:22;;;;;;;35.00;15.20;;;;;;;7.25;56.73;99025.45;107884;1257;72348;-66
2023/01/30 15:13:17;;;;;;;28.80;13.50;;;;;;;7.59;55.56;99023.84;107897;1256;62713;-66
2023/01/30 15:16:15;;;;;;;35.00;17.30;;;;;;;8.32;53.94;99019.29;107774;1256;60914;-66
2023/01/30 15:19:02;;;;;;;39.50;15.20;;;;;;;8.64;52.96;99019.73;107901;1260;74011;-66
2023/01/30 15:21:47;;;;;;;29.60;12.00;;;;;;;8.22;53.64;99023.04;107860;1261;71385;-65
2023/01/30 15:24:20;;;;;;;28.60;16.00;;;;;;;7.96;53.73;99023.14;107892;1257;73222;-66
2023/01/30 15:27:09;;;;;;;22.90;12.20;;;;;;;7.83;53.94;99021.79;107834;1256;62273;-66
2023/01/30 15:30:02;;;;;;;25.80;12.80;;;;;;;7.48;54.91;99018.58;107838;1258;60373;-66
2023/01/30 15:32:31;;;;;;;28.40;14.00;;;;;;;7.56;54.77;99013.16;107909;1257;72750;-67
2023/01/30 15:35:20;;;;;;;36.20;18.00;;;;;;;7.73;54.46;99004.77;107847;1258;71394;-66
2023/01/30 15:37:53;;;;;;;37.10;17.90;;;;;;;7.70;54.76;99013.58;107950;1258;73704;-66
2023/01/30 15:40:26;;;;;;;37.30;16.50;;;;;;;7.73;54.50;99013.83;107945;1257;62401;-67
2023/01/30 15:43:00;;;;;;;36.20;18.60;;;;;;;7.71;54.48;99012.71;107853;1257;60331;-66
2023/01/30 15:45:34;;;;;;;28.70;12.30;;;;;;;7.66;54.42;99012.20;107806;1260;72591;-66
2023/01/30 15:48:02;;;;;;;41.50;17.70;;;;;;;7.58;54.73;99015.86;107821;1257;71580;-66
2023/01/30 15:50:31;;;;;;;49.70;20.60;;;;;;;7.91;54.19;99009.89;107809;1257;73583;-66
2023/01/30 15:52:59;;;;;;;36.70;14.80;;;;;;;7.75;54.33;99007.98;107885;1257;60507;-66
2023/01/30 15:55:31;;;;;;;44.90;19.90;;;;;;;7.61;54.51;99005.80;107658;1258;60577;-66
2023/01/30 15:58:04;;;;;;;42.70;18.40;;;;;;;7.72;54.64;99003.92;107867;1260;73999;-66
2023/01/30 16:00:35;;;;;;;34.90;15.20;;;;;;;7.51;54.74;99007.27;107803;1257;70683;-66
2023/01/30 16:03:04;;;;;;;34.20;16.60;;;;;;;7.52;55.10;99005.65;107805;1257;72785;-66
2023/01/30 16:05:32;;;;;;;25.00;11.30;;;;;;;7.62;54.57;99008.36;107646;1257;60837;-66
2023/01/30 16:08:09;;;;;;;24.00;12.20;;;;;;;7.56;54.44;99013.50;107855;1257;61627;-66
2023/01/30 16:10:43;;;;;;;26.20;13.60;;;;;;;7.69;54.47;99000.91;107767;1257;74293;-66
2023/01/30 16:13:12;;;;;;;35.40;16.00;;;;;;;7.75;54.31;99007.80;107663;1257;70848;-66
2023/01/30 16:15:45;;;;;;;29.60;13.50;;;;;;;8.03;53.54;99002.89;107631;1263;73894;-65
2023/01/30 16:18:34;;;;;;;27.20;13.20;;;;;;;8.19;53.08;99000.12;107838;1256;61277;-66
2023/01/30 16:21:33;;;;;;;20.40;9.80;;;;;;;7.97;53.39;99002.46;107892;1257;59828;-66
2023/01/30 16:24:23;;;;;;;27.00;13.00;;;;;;;8.17;52.81;99004.20;107861;1257;73103;-66
2023/01/30 16:26:56;;;;;;;28.00;12.30;;;;;;;8.18;52.73;99005.90;107813;1258;71247;-66
2023/01/30 16:29:29;;;;;;;25.40;12.00;;;;;;;8.47;52.16;99004.27;107696;1258;71791;-66
2023/01/30 16:31:57;;;;;;;24.40;11.70;;;;;;;8.11;52.46;99001.16;107808;1257;62256;-66
2023/01/30 16:34:36;;;;;;;24.30;12.60;;;;;;;8.34;52.32;98998.21;107827;1257;59626;-66
2023/01/30 16:37:06;;;;;;;25.30;12.40;;;;;;;8.69;51.62;98993.27;107887;1260;73835;-66
2023/01/30 16:39:35;;;;;;;25.80;13.20;;;;;;;8.54;51.37;98992.75;107857;1257;70622;-66
2023/01/30 16:42:27;;;;;;;32.80;14.70;;;;;;;8.52;51.69;98985.98;107768;1260;72941;-66
2023/01/30 16:45:38;;;;;;;32.80;12.90;;;;;;;8.73;51.10;98984.48;107773;1257;61420;-68
2023/01/30 16:48:17;;;;;;;24.50;10.10;;;;;;;8.63;51.05;98982.88;107680;1262;61228;-66
2023/01/30 16:50:46;;;;;;;25.60;11.80;;;;;;;8.51;51.10;98984.64;107934;1257;72544;-66
2023/01/30 16:53:17;;;;;;;28.90;13.80;;;;;;;8.62;51.13;98984.15;107865;1258;71509;-66
2023/01/30 16:56:04;;;;;;;27.30;12.80;;;;;;;8.51;51.02;98989.71;107799;1260;71980;-66
2023/01/30 16:58:34;;;;;;;33.00;15.40;;;;;;;8.58;51.22;98988.52;107823;1258;60004;-66
2023/01/30 17:01:06;;;;;;;30.70;15.70;;;;;;;8.55;50.93;98991.27;107923;1260;61151;-65
2023/01/30 17:03:37;;;;;;;27.30;14.20;;;;;;;8.48;50.91;98983.06;107790;1257;73410;-67
2023/01/30 17:06:15;;;;;;;34.30;12.50;;;;;;;8.66;50.81;98979.95;107833;1257;71509;-67
2023/01/30 17:08:52;;;;;;;24.90;13.80;;;;;;;8.52;50.90;98976.20;107835;1257;73839;-66
2023/01/30 17:11:27;;;;;;;26.00;13.10;;;;;;;8.29;51.21;98975.70;107800;1258;62229;-66
2023/01/30 17:14:24;;;;;;;25.30;8.60;;;;;;;8.49;51.09;98975.48;107790;1257;61542;-66
2023/01/30 17:16:59;;;;;;;27.50;11.90;;;;;;;8.70;50.54;98978.69;107826;1257;72720;-66
2023/01/30 17:19:28;;;;;;;29.00;13.40;;;;;;;8.77;50.17;98974.34;107696;1258;71882;-66
2023/01/30 17:21:57;;;;;;;29.40;12.30;;;;;;;8.91;50.23;98976.78;107834;1257;71769;-66
2023/01/30 17:24:26;;;;;;;22.40;10.30;;;;;;;8.16;51.24;98973.84;107787;1257;61496;-66
2023/01/30 17:26:59;;;;;;;24.20;13.00;;;;;;;8.05;51.81;98972.24;107788;1258;59534;-66
2023/01/30 17:29:28;;;;;;;25.60;11.20;;;;;;;7.93;52.41;98973.45;107901;1256;73525;-66
2023/01/30 17:32:10;;;;;;;25.70;12.20;;;;;;;8.08;51.89;98973.12;108005;1260;70457;-67
2023/01/30 17:34:40;;;;;;;27.10;12.60;;;;;;;8.51;50.91;98963.85;107894;1257;73979;-67
2023/01/30 17:37:22;;;;;;;25.10;12.20;;;;;;;8.80;50.19;98958.42;107922;1257;62062;-67
2023/01/30 17:39:51;;;;;;;25.00;12.40;;;;;;;8.39;50.73;98958.25;107898;1256;60022;-67
2023/01/30 17:42:20;;;;;;;24.70;13.10;;;;;;;8.60;50.84;98949.80;107929;1257;73288;-67
2023/01/30 17:44:49;;;;;;;23.50;10.80;;;;;;;8.33;50.93;98956.97;107926;1257;71311;-67
2023/01/30 17:47:17;;;;;;;27.00;13.00;;;;;;;7.99;51.77;98948.38;107890;1256;71206;-67
2023/01/30 17:49:47;;;;;;;25.20;12.40;;;;;;;8.35;51.67;98953.91;107889;1256;62144;-67
2023/01/30 17:52:17;;;;;;;23.90;9.60;;;;;;;8.76;50.34;98954.44;108055;1256;59628;-66
2023/01/30 22:08:40;;;;;;;67.30;27.40;;;;;;;0.31;100.00;98910.63;106325;1290;612864;-96
2023/01/30 22:11:41;;;;;;;63.50;25.80;;;;;;;3.20;100.00;98897.80;108166;1270;90257;-64
2023/01/30 22:14:12;;;;;;;61.30;23.40;;;;;;;3.36;100.00;98897.91;107091;1269;60556;-64
2023/01/30 22:16:39;;;;;;;65.00;28.30;;;;;;;2.98;100.00;98903.39;107070;1268;73259;-64
2023/01/30 22:19:05;;;;;;;61.10;27.20;;;;;;;3.22;100.00;98898.11;107082;1270;70311;-64
2023/01/30 22:21:34;;;;;;;62.70;27.20;;;;;;;3.56;100.00;98896.45;107010;1267;171902;-64
2023/01/30 22:24:02;;;;;;;68.10;29.40;;;;;;;3.74;100.00;98890.92;107198;1267;62359;-65
2023/01/30 22:26:29;;;;;;;60.90;26.80;;;;;;;3.75;100.00;98890.90;107227;1267;59358;-64
2023/01/30 22:28:57;;;;;;;68.60;29.50;;;;;;;3.81;100.00;98889.66;107199;1266;72384;-64
2023/01/30 22:31:25;;;;;;;66.80;25.30;;;;;;;3.97;100.00;98898.23;107261;1267;70404;-64
2023/01/30 22:33:53;;;;;;;65.70;27.90;;;;;;;3.95;100.00;98905.95;107249;1270;72564;-64